Time,TemperatureF,DewpointF,PressureIn,WindDirection,WindDirectionDegrees,WindSpeedMPH,WindSpeedGustMPH,Humidity,HourlyPrecipIn,Conditions,Clouds,dailyrainin,SoftwareType,DateUTC
2013-03-05 00:07:00,45.7,43.0,30.11,NE,46,0.0,-999.0,91,-99.99,,,0.00,weatherlink.com 1.10,2013-03-05 05:07:00,
2013-03-05 00:22:00,46.2,44.0,30.11,NE,46,0.0,-999.0,92,-99.99,,,0.00,weatherlink.com 1.10,2013-03-05 05:22:00,
2013-03-05 00:37:00,45.8,44.0,30.11,NE,46,0.0,-999.0,92,-99.99,,,0.00,weatherlink.com 1.10,2013-03-05 05:37:00,
2013-03-05 00:52:00,45.5,44.0,30.11,NE,46,0.0,-999.0,93,-99.99,,,0.00,weatherlink.com 1.10,2013-03-05 05:52:00,
2013-03-05 01:07:00,45.1,43.0,30.11,NE,46,0.0,-999.0,93,-99.99,,,0.00,weatherlink.com 1.10,2013-03-05 06:07:00,
2013-03-05 01:22:00,44.3,42.0,30.11,NE,46,0.0,-999.0,93,-99.99,,,0.00,weatherlink.com 1.10,2013-03-05 06:22:00,
2013-03-05 01:37:00,44.1,43.0,30.11,NE,46,0.0,-999.0,94,-99.99,,,0.00,weatherlink.com 1.10,2013-03-05 06:37:00,
2013-03-05 01:52:00,43.2,41.0,30.10,NE,46,0.0,-999.0,93,-99.99,,,0.00,weatherlink.com 1.10,2013-03-05 06:52:00,
2013-03-05 02:07:00,43.3,42.0,30.09,NE,46,0.0,-999.0,94,-99.99,,,0.00,weatherlink.com 1.10,2013-03-05 07:07:00,
2013-03-05 02:22:00,43.2,42.0,30.09,NE,46,0.0,-999.0,95,-99.99,,,0.00,weatherlink.com 1.10,2013-03-05 07:22:00,
2013-03-05 02:37:00,43.0,42.0,30.09,NE,46,0.0,-999.0,95,-99.99,,,0.00,weatherlink.com 1.10,2013-03-05 07:37:00,
2013-03-05 02:52:00,42.6,41.0,30.08,NE,46,0.0,-999.0,95,-99.99,,,0.00,weatherlink.com 1.10,2013-03-05 07:52:00,
2013-03-05 03:07:00,42.5,41.0,30.08,NE,46,0.0,-999.0,95,-99.99,,,0.00,weatherlink.com 1.10,2013-03-05 08:07:00,
2013-03-05 03:22:00,42.4,41.0,30.08,NE,46,0.0,-999.0,95,-99.99,,,0.00,weatherlink.com 1.10,2013-03-05 08:22:00,
2013-03-05 03:37:00,42.4,41.0,30.09,NE,46,0.0,-999.0,95,-99.99,,,0.00,weatherlink.com 1.10,2013-03-05 08:37:00,
2013-03-05 03:52:00,42.3,41.0,30.08,NE,46,0.0,-999.0,95,-99.99,,,0.00,weatherlink.com 1.10,2013-03-05 08:52:00,
2013-03-05 04:07:00,43.3,42.0,30.09,NE,46,0.0,-999.0,95,-99.99,,,0.00,weatherlink.com 1.10,2013-03-05 09:07:00,
2013-03-05 04:22:00,42.7,41.0,30.09,NE,46,0.0,-999.0,95,-99.99,,,0.00,weatherlink.com 1.10,2013-03-05 09:22:00,
2013-03-05 04:37:00,42.0,41.0,30.08,NE,46,0.0,-999.0,95,-99.99,,,0.00,weatherlink.com 1.10,2013-03-05 09:37:00,
2013-03-05 04:52:00,42.2,41.0,30.08,NE,46,0.0,-999.0,95,-99.99,,,0.00,weatherlink.com 1.10,2013-03-05 09:52:00,
2013-03-05 05:07:00,42.6,42.0,30.09,NE,46,0.0,-999.0,96,-99.99,,,0.00,weatherlink.com 1.10,2013-03-05 10:07:00,
2013-03-05 05:23:00,42.1,41.0,30.09,NE,46,0.0,-999.0,96,-99.99,,,0.00,weatherlink.com 1.10,2013-03-05 10:23:00,
2013-03-05 05:38:00,42.5,42.0,30.10,NE,46,0.0,-999.0,96,-99.99,,,0.00,weatherlink.com 1.10,2013-03-05 10:38:00,
2013-03-05 06:08:00,43.7,43.0,30.10,NE,46,0.0,-999.0,97,-99.99,,,0.00,weatherlink.com 1.10,2013-03-05 11:08:00,
2013-03-05 06:23:00,43.8,43.0,30.10,NE,46,0.0,-999.0,96,-99.99,,,0.00,weatherlink.com 1.10,2013-03-05 11:23:00,
2013-03-05 06:38:00,43.6,43.0,30.11,NE,46,0.0,-999.0,96,-99.99,,,0.00,weatherlink.com 1.10,2013-03-05 11:38:00,
2013-03-05 06:53:00,44.4,44.0,30.11,North,351,0.0,-999.0,97,-99.99,,,0.00,weatherlink.com 1.10,2013-03-05 11:53:00,
2013-03-05 07:08:00,45.0,44.0,30.11,NW,305,0.0,-999.0,97,-99.99,,,0.00,weatherlink.com 1.10,2013-03-05 12:08:00,
2013-03-05 07:23:00,45.7,45.0,30.11,West,272,0.0,-999.0,97,-99.99,,,0.00,weatherlink.com 1.10,2013-03-05 12:23:00,
2013-03-05 07:38:00,47.8,47.0,30.11,West,272,0.0,-999.0,97,-99.99,,,0.00,weatherlink.com 1.10,2013-03-05 12:38:00,
2013-03-05 07:53:00,50.1,47.0,30.11,WSW,254,0.0,-999.0,89,-99.99,,,0.00,weatherlink.com 1.10,2013-03-05 12:53:00,
2013-03-05 08:08:00,53.3,47.0,30.12,WSW,253,0.0,-999.0,79,-99.99,,,0.00,weatherlink.com 1.10,2013-03-05 13:08:00,
2013-03-05 08:23:00,55.6,47.0,30.12,WSW,253,0.0,-999.0,73,-99.99,,,0.00,weatherlink.com 1.10,2013-03-05 13:23:00,
2013-03-05 08:38:00,58.1,46.0,30.13,SW,234,0.0,-999.0,64,-99.99,,,0.00,weatherlink.com 1.10,2013-03-05 13:38:00,
2013-03-05 08:53:00,60.5,46.0,30.13,WSW,254,0.0,-999.0,59,-99.99,,,0.00,weatherlink.com 1.10,2013-03-05 13:53:00,
2013-03-05 09:08:00,61.9,46.0,30.13,WSW,251,0.0,-999.0,56,-99.99,,,0.00,weatherlink.com 1.10,2013-03-05 14:08:00,
2013-03-05 09:23:00,63.5,47.0,30.13,WSW,245,0.0,-999.0,55,-99.99,,,0.00,weatherlink.com 1.10,2013-03-05 14:23:00,
2013-03-05 09:38:00,65.8,49.0,30.13,WSW,252,3.0,-999.0,55,-99.99,,,0.00,weatherlink.com 1.10,2013-03-05 14:38:00,
2013-03-05 09:53:00,66.6,51.0,30.13,WNW,288,0.0,-999.0,58,-99.99,,,0.00,weatherlink.com 1.10,2013-03-05 14:53:00,
2013-03-05 10:08:00,68.0,53.0,30.13,SW,236,0.0,-999.0,60,-99.99,,,0.00,weatherlink.com 1.10,2013-03-05 15:08:00,
2013-03-05 10:23:00,69.5,54.0,30.12,SSW,194,0.0,-999.0,58,-99.99,,,0.00,weatherlink.com 1.10,2013-03-05 15:23:00,
2013-03-05 10:38:00,70.2,53.0,30.13,WSW,250,0.0,-999.0,54,-99.99,,,0.00,weatherlink.com 1.10,2013-03-05 15:38:00,
2013-03-05 10:53:00,70.8,53.0,30.13,SW,219,3.0,-999.0,54,-99.99,,,0.00,weatherlink.com 1.10,2013-03-05 15:53:00,
2013-03-05 11:08:00,71.7,54.0,30.12,WSW,240,0.0,-999.0,53,-99.99,,,0.00,weatherlink.com 1.10,2013-03-05 16:08:00,
2013-03-05 11:23:00,72.5,53.0,30.11,SW,226,0.0,-999.0,50,-99.99,,,0.00,weatherlink.com 1.10,2013-03-05 16:23:00,
2013-03-05 11:38:00,73.6,51.0,30.11,SW,221,0.0,-999.0,45,-99.99,,,0.00,weatherlink.com 1.10,2013-03-05 16:38:00,
2013-03-05 11:53:00,71.8,56.0,30.10,ESE,103,0.0,-999.0,57,-99.99,,,0.00,weatherlink.com 1.10,2013-03-05 16:53:00,
2013-03-05 12:08:00,71.3,56.0,30.10,ESE,115,3.0,-999.0,58,-99.99,,,0.00,weatherlink.com 1.10,2013-03-05 17:08:00,
2013-03-05 12:23:00,71.4,56.0,30.08,East,90,4.0,-999.0,59,-99.99,,,0.00,weatherlink.com 1.10,2013-03-05 17:23:00,
2013-03-05 12:38:00,72.0,56.0,30.08,NE,53,2.0,-999.0,57,-99.99,,,0.00,weatherlink.com 1.10,2013-03-05 17:38:00,
2013-03-05 12:53:00,73.1,56.0,30.07,South,186,0.0,-999.0,56,-99.99,,,0.00,weatherlink.com 1.10,2013-03-05 17:53:00,
2013-03-05 13:08:00,73.9,59.0,30.06,SE,128,0.0,-999.0,60,-99.99,,,0.00,weatherlink.com 1.10,2013-03-05 18:08:00,
2013-03-05 13:23:00,72.4,58.0,30.05,ESE,105,5.0,-999.0,61,-99.99,,,0.00,weatherlink.com 1.10,2013-03-05 18:23:00,
2013-03-05 13:38:00,72.6,58.0,30.05,ESE,102,3.0,-999.0,60,-99.99,,,0.00,weatherlink.com 1.10,2013-03-05 18:38:00,
2013-03-05 13:54:00,72.4,58.0,30.05,ESE,118,3.0,-999.0,61,-99.99,,,0.00,weatherlink.com 1.10,2013-03-05 18:54:00,
2013-03-05 14:09:00,73.3,58.0,30.03,ESE,112,11.0,-999.0,60,-99.99,,,0.00,weatherlink.com 1.10,2013-03-05 19:09:00,
2013-03-05 14:39:00,72.6,60.0,30.03,ESE,120,0.0,-999.0,64,-99.99,,,0.00,weatherlink.com 1.10,2013-03-05 19:39:00,
2013-03-05 14:54:00,72.3,59.0,30.03,ESE,119,1.0,-999.0,63,-99.99,,,0.00,weatherlink.com 1.10,2013-03-05 19:54:00,
2013-03-05 15:09:00,72.5,60.0,30.02,ESE,117,0.0,-999.0,66,-99.99,,,0.00,weatherlink.com 1.10,2013-03-05 20:09:00,
2013-03-05 15:24:00,72.7,61.0,30.02,SE,142,10.0,-999.0,66,-99.99,,,0.00,weatherlink.com 1.10,2013-03-05 20:24:00,
2013-03-05 15:39:00,72.1,61.0,30.02,SE,129,5.0,-999.0,67,-99.99,,,0.00,weatherlink.com 1.10,2013-03-05 20:39:00,
2013-03-05 15:54:00,72.2,60.0,30.02,SE,131,0.0,-999.0,66,-99.99,,,0.00,weatherlink.com 1.10,2013-03-05 20:54:00,
2013-03-05 16:09:00,71.8,60.0,30.01,SSE,150,7.0,-999.0,67,-99.99,,,0.00,weatherlink.com 1.10,2013-03-05 21:09:00,
2013-03-05 16:24:00,71.5,60.0,30.00,ESE,121,14.0,-999.0,67,-99.99,,,0.00,weatherlink.com 1.10,2013-03-05 21:24:00,
2013-03-05 16:39:00,71.0,60.0,30.01,ESE,122,0.0,-999.0,69,-99.99,,,0.00,weatherlink.com 1.10,2013-03-05 21:39:00,
2013-03-05 16:54:00,71.0,60.0,30.01,SE,133,10.0,-999.0,69,-99.99,,,0.00,weatherlink.com 1.10,2013-03-05 21:54:00,
2013-03-05 17:09:00,70.2,60.0,30.01,ESE,119,6.0,-999.0,70,-99.99,,,0.00,weatherlink.com 1.10,2013-03-05 22:09:00,
2013-03-05 17:24:00,69.7,60.0,30.01,SE,138,0.0,-999.0,71,-99.99,,,0.00,weatherlink.com 1.10,2013-03-05 22:24:00,
2013-03-05 17:39:00,69.3,60.0,30.01,SSE,148,6.0,-999.0,71,-99.99,,,0.00,weatherlink.com 1.10,2013-03-05 22:39:00,
2013-03-05 17:54:00,68.4,59.0,30.02,SSE,157,0.0,-999.0,73,-99.99,,,0.00,weatherlink.com 1.10,2013-03-05 22:54:00,
2013-03-05 18:09:00,68.0,59.0,30.02,SSE,158,0.0,-999.0,74,-99.99,,,0.00,weatherlink.com 1.10,2013-03-05 23:09:00,
2013-03-05 18:24:00,67.1,59.0,30.02,SSE,159,0.0,-999.0,76,-99.99,,,0.00,weatherlink.com 1.10,2013-03-05 23:24:00,
2013-03-05 18:39:00,65.5,59.0,30.02,SSE,159,0.0,-999.0,80,-99.99,,,0.00,weatherlink.com 1.10,2013-03-05 23:39:00,
2013-03-05 18:54:00,65.2,59.0,30.01,SSE,160,2.0,-999.0,81,-99.99,,,0.00,weatherlink.com 1.10,2013-03-05 23:54:00,
2013-03-05 19:09:00,64.5,59.0,30.00,SSE,159,0.0,-999.0,83,-99.99,,,0.00,weatherlink.com 1.10,2013-03-06 00:09:00,
2013-03-05 19:24:00,63.4,59.0,30.00,SSE,163,0.0,-999.0,85,-99.99,,,0.00,weatherlink.com 1.10,2013-03-06 00:24:00,
2013-03-05 19:39:00,62.7,59.0,30.00,SSE,163,0.0,-999.0,87,-99.99,,,0.00,weatherlink.com 1.10,2013-03-06 00:39:00,
2013-03-05 19:54:00,61.6,58.0,30.00,SSE,163,0.0,-999.0,89,-99.99,,,0.00,weatherlink.com 1.10,2013-03-06 00:54:00,
2013-03-05 20:09:00,61.1,58.0,30.00,SSE,163,0.0,-999.0,89,-99.99,,,0.00,weatherlink.com 1.10,2013-03-06 01:09:00,
2013-03-05 20:24:00,61.0,58.0,30.00,SSE,163,0.0,-999.0,88,-99.99,,,0.00,weatherlink.com 1.10,2013-03-06 01:24:00,
2013-03-05 20:39:00,60.0,57.0,30.00,SSE,164,0.0,-999.0,88,-99.99,,,0.00,weatherlink.com 1.10,2013-03-06 01:39:00,
2013-03-05 20:54:00,58.7,56.0,30.01,SSE,164,0.0,-999.0,89,-99.99,,,0.00,weatherlink.com 1.10,2013-03-06 01:54:00,
2013-03-05 21:09:00,59.2,54.0,30.02,South,188,0.0,-999.0,83,-99.99,,,0.00,weatherlink.com 1.10,2013-03-06 02:09:00,
2013-03-05 21:24:00,60.3,52.0,30.01,WSW,244,2.0,-999.0,74,-99.99,,,0.00,weatherlink.com 1.10,2013-03-06 02:24:00,
2013-03-05 21:39:00,61.0,51.0,30.01,WSW,252,0.0,-999.0,70,-99.99,,,0.00,weatherlink.com 1.10,2013-03-06 02:39:00,
2013-03-05 21:54:00,60.6,51.0,30.02,WSW,253,0.0,-999.0,70,-99.99,,,0.00,weatherlink.com 1.10,2013-03-06 02:54:00,
2013-03-05 22:09:00,60.1,51.0,30.02,WSW,249,0.0,-999.0,72,-99.99,,,0.00,weatherlink.com 1.10,2013-03-06 03:09:00,
2013-03-05 22:24:00,59.5,51.0,30.01,WSW,244,1.0,-999.0,73,-99.99,,,0.00,weatherlink.com 1.10,2013-03-06 03:24:00,
2013-03-05 22:39:00,59.1,51.0,30.01,WSW,242,0.0,-999.0,75,-99.99,,,0.00,weatherlink.com 1.10,2013-03-06 03:39:00,
2013-03-05 22:54:00,58.5,51.0,30.00,WSW,242,2.0,-999.0,77,-99.99,,,0.00,weatherlink.com 1.10,2013-03-06 03:54:00,
2013-03-05 23:09:00,57.9,52.0,30.00,SW,225,0.0,-999.0,80,-99.99,,,0.00,weatherlink.com 1.10,2013-03-06 04:09:00,
2013-03-05 23:24:00,57.3,53.0,30.00,SW,232,4.0,-999.0,84,-99.99,,,0.00,weatherlink.com 1.10,2013-03-06 04:24:00,
2013-03-05 23:39:00,57.2,53.0,30.00,SW,234,0.0,-999.0,86,-99.99,,,0.00,weatherlink.com 1.10,2013-03-06 04:39:00,
2013-03-05 23:54:00,57.1,54.0,29.99,WSW,249,3.0,-999.0,88,-99.99,,,0.00,weatherlink.com 1.10,2013-03-06 04:54:00,